Alabat, Philippines
Current Conditions -  °F | °C
As of 11:00 PM on Sunday 21 Dec 2014 (Local Time) from RPLL Reporting Station
Scattered Clouds Scattered Clouds  
Wind Chill: 79°   Ceiling: Unl
Heat Index: 82°   Visibility: 6mi
Dew Point: 75°   Wind: 1mph
Humidity: 89%   Direction: NA
Pressure: 29.91"   Gusts: NA
Location:  14.1°N, 122.02°E
Report Text: RPLL 211500Z VRB01KT 9999 FEW025 SCT100 26/24 Q1013 NOSIG RMKA2991
Loading
Personal Weather Stations






























Interactive Weather Map New forecast layout! Learn more

10-Day Weather Forecast

Advertisements
Track Severe Weather on mobile